sensor_id;sensor_type;location;lat;lon;timestamp;P1;durP1;ratioP1;P2;durP2;ratioP2
19985;SDS011;10154;52.474;10.768;2023-01-10T00:01:15;20.87;;;6.40;;
19985;SDS011;10154;52.474;10.768;2023-01-10T00:03:41;15.90;;;4.80;;
19985;SDS011;10154;52.474;10.768;2023-01-10T00:06:06;21.80;;;5.70;;
19985;SDS011;10154;52.474;10.768;2023-01-10T00:08:31;17.33;;;4.30;;
19985;SDS011;10154;52.474;10.768;2023-01-10T00:10:57;16.70;;;5.47;;
19985;SDS011;10154;52.474;10.768;2023-01-10T00:13:22;15.40;;;5.37;;
19985;SDS011;10154;52.474;10.768;2023-01-10T00:15:48;17.47;;;5.23;;
19985;SDS011;10154;52.474;10.768;2023-01-10T00:18:15;18.83;;;5.17;;
19985;SDS011;10154;52.474;10.768;2023-01-10T00:20:41;17.60;;;5.43;;
19985;SDS011;10154;52.474;10.768;2023-01-10T00:23:08;20.57;;;5.50;;
19985;SDS011;10154;52.474;10.768;2023-01-10T00:25:34;21.43;;;6.47;;
19985;SDS011;10154;52.474;10.768;2023-01-10T00:28:00;14.77;;;5.03;;
19985;SDS011;10154;52.474;10.768;2023-01-10T00:30:45;11.83;;;4.53;;
19985;SDS011;10154;52.474;10.768;2023-01-10T00:33:12;20.93;;;5.53;;
19985;SDS011;10154;52.474;10.768;2023-01-10T00:35:47;14.90;;;4.50;;
19985;SDS011;10154;52.474;10.768;2023-01-10T00:38:12;19.40;;;5.33;;
19985;SDS011;10154;52.474;10.768;2023-01-10T00:40:38;19.73;;;5.70;;
19985;SDS011;10154;52.474;10.768;2023-01-10T00:43:04;21.50;;;5.77;;
19985;SDS011;10154;52.474;10.768;2023-01-10T00:45:48;15.47;;;5.23;;
19985;SDS011;10154;52.474;10.768;2023-01-10T00:48:14;23.97;;;5.33;;
19985;SDS011;10154;52.474;10.768;2023-01-10T00:50:40;16.50;;;5.10;;
19985;SDS011;10154;52.474;10.768;2023-01-10T00:53:05;16.10;;;4.90;;
19985;SDS011;10154;52.474;10.768;2023-01-10T00:55:31;19.50;;;5.87;;
19985;SDS011;10154;52.474;10.768;2023-01-10T00:57:57;22.90;;;6.03;;
19985;SDS011;10154;52.474;10.768;2023-01-10T01:00:23;22.73;;;5.60;;
19985;SDS011;10154;52.474;10.768;2023-01-10T01:02:48;21.90;;;6.30;;
19985;SDS011;10154;52.474;10.768;2023-01-10T01:05:15;21.33;;;5.33;;
19985;SDS011;10154;52.474;10.768;2023-01-10T01:07:41;18.40;;;5.97;;
19985;SDS011;10154;52.474;10.768;2023-01-10T01:10:07;20.23;;;6.03;;
19985;SDS011;10154;52.474;10.768;2023-01-10T01:12:51;20.50;;;5.67;;
19985;SDS011;10154;52.474;10.768;2023-01-10T01:15:17;21.43;;;6.87;;
19985;SDS011;10154;52.474;10.768;2023-01-10T01:17:43;17.60;;;6.20;;
19985;SDS011;10154;52.474;10.768;2023-01-10T01:20:09;18.83;;;6.97;;
19985;SDS011;10154;52.474;10.768;2023-01-10T01:22:35;17.20;;;6.17;;
19985;SDS011;10154;52.474;10.768;2023-01-10T01:25:01;22.10;;;6.67;;
19985;SDS011;10154;52.474;10.768;2023-01-10T01:27:28;22.20;;;6.70;;
19985;SDS011;10154;52.474;10.768;2023-01-10T01:29:54;22.53;;;6.93;;
19985;SDS011;10154;52.474;10.768;2023-01-10T01:32:19;20.93;;;6.60;;
19985;SDS011;10154;52.474;10.768;2023-01-10T01:34:45;22.93;;;7.00;;
19985;SDS011;10154;52.474;10.768;2023-01-10T01:37:11;15.73;;;6.57;;
19985;SDS011;10154;52.474;10.768;2023-01-10T01:39:36;22.47;;;6.30;;
19985;SDS011;10154;52.474;10.768;2023-01-10T01:42:03;21.73;;;6.63;;
19985;SDS011;10154;52.474;10.768;2023-01-10T01:44:29;20.53;;;6.60;;
19985;SDS011;10154;52.474;10.768;2023-01-10T01:49:30;18.47;;;5.93;;
19985;SDS011;10154;52.474;10.768;2023-01-10T01:51:58;19.30;;;6.17;;
19985;SDS011;10154;52.474;10.768;2023-01-10T01:54:26;17.33;;;6.37;;
19985;SDS011;10154;52.474;10.768;2023-01-10T01:56:55;21.77;;;6.67;;
19985;SDS011;10154;52.474;10.768;2023-01-10T01:59:29;24.83;;;6.70;;
19985;SDS011;10154;52.474;10.768;2023-01-10T02:02:02;17.90;;;5.60;;
19985;SDS011;10154;52.474;10.768;2023-01-10T02:04:41;25.50;;;6.87;;
19985;SDS011;10154;52.474;10.768;2023-01-10T02:07:11;25.07;;;7.50;;
19985;SDS011;10154;52.474;10.768;2023-01-10T02:09:40;18.30;;;6.57;;
19985;SDS011;10154;52.474;10.768;2023-01-10T02:12:08;19.97;;;7.17;;
19985;SDS011;10154;52.474;10.768;2023-01-10T02:14:34;20.63;;;6.90;;
19985;SDS011;10154;52.474;10.768;2023-01-10T02:17:00;17.50;;;6.47;;
19985;SDS011;10154;52.474;10.768;2023-01-10T02:19:28;21.70;;;7.17;;
19985;SDS011;10154;52.474;10.768;2023-01-10T02:22:23;18.63;;;7.47;;
19985;SDS011;10154;52.474;10.768;2023-01-10T02:30:59;21.83;;;7.90;;
19985;SDS011;10154;52.474;10.768;2023-01-10T02:44:03;17.40;;;6.63;;
19985;SDS011;10154;52.474;10.768;2023-01-10T02:46:33;20.70;;;7.40;;
19985;SDS011;10154;52.474;10.768;2023-01-10T02:49:01;20.17;;;7.20;;
19985;SDS011;10154;52.474;10.768;2023-01-10T02:51:27;20.53;;;7.30;;
19985;SDS011;10154;52.474;10.768;2023-01-10T02:53:57;22.77;;;8.10;;
19985;SDS011;10154;52.474;10.768;2023-01-10T02:59:31;21.00;;;8.60;;
19985;SDS011;10154;52.474;10.768;2023-01-10T03:02:25;18.30;;;8.03;;
19985;SDS011;10154;52.474;10.768;2023-01-10T03:05:15;15.80;;;6.93;;
19985;SDS011;10154;52.474;10.768;2023-01-10T03:15:54;20.30;;;8.40;;
19985;SDS011;10154;52.474;10.768;2023-01-10T03:18:44;20.10;;;8.73;;
19985;SDS011;10154;52.474;10.768;2023-01-10T03:21:15;22.53;;;8.33;;
19985;SDS011;10154;52.474;10.768;2023-01-10T03:23:40;19.10;;;8.70;;
19985;SDS011;10154;52.474;10.768;2023-01-10T03:26:06;21.67;;;9.07;;
19985;SDS011;10154;52.474;10.768;2023-01-10T03:28:36;22.07;;;7.50;;
19985;SDS011;10154;52.474;10.768;2023-01-10T03:31:10;20.77;;;9.17;;
19985;SDS011;10154;52.474;10.768;2023-01-10T03:33:39;25.93;;;9.70;;
19985;SDS011;10154;52.474;10.768;2023-01-10T03:36:52;23.40;;;8.97;;
19985;SDS011;10154;52.474;10.768;2023-01-10T03:38:53;22.40;;;9.17;;
19985;SDS011;10154;52.474;10.768;2023-01-10T03:41:31;23.83;;;9.47;;
19985;SDS011;10154;52.474;10.768;2023-01-10T03:49:39;22.67;;;8.07;;
19985;SDS011;10154;52.474;10.768;2023-01-10T03:52:06;19.93;;;9.00;;
19985;SDS011;10154;52.474;10.768;2023-01-10T03:54:33;19.67;;;7.90;;
19985;SDS011;10154;52.474;10.768;2023-01-10T03:56:58;19.20;;;8.63;;
19985;SDS011;10154;52.474;10.768;2023-01-10T03:59:26;20.43;;;8.77;;
19985;SDS011;10154;52.474;10.768;2023-01-10T04:01:53;24.73;;;9.03;;
19985;SDS011;10154;52.474;10.768;2023-01-10T04:04:19;16.13;;;7.63;;
19985;SDS011;10154;52.474;10.768;2023-01-10T04:06:45;17.10;;;7.30;;
19985;SDS011;10154;52.474;10.768;2023-01-10T04:09:10;18.53;;;7.77;;
19985;SDS011;10154;52.474;10.768;2023-01-10T04:11:35;18.60;;;7.30;;
19985;SDS011;10154;52.474;10.768;2023-01-10T04:14:01;16.47;;;7.43;;
19985;SDS011;10154;52.474;10.768;2023-01-10T04:16:26;20.57;;;7.47;;
19985;SDS011;10154;52.474;10.768;2023-01-10T04:18:52;22.27;;;7.63;;
19985;SDS011;10154;52.474;10.768;2023-01-10T04:21:18;17.17;;;7.73;;
19985;SDS011;10154;52.474;10.768;2023-01-10T04:23:43;14.23;;;6.70;;
19985;SDS011;10154;52.474;10.768;2023-01-10T04:26:09;20.60;;;7.87;;
19985;SDS011;10154;52.474;10.768;2023-01-10T04:28:34;18.17;;;7.43;;
19985;SDS011;10154;52.474;10.768;2023-01-10T04:31:00;14.20;;;6.43;;
19985;SDS011;10154;52.474;10.768;2023-01-10T04:33:25;15.00;;;6.60;;
19985;SDS011;10154;52.474;10.768;2023-01-10T04:35:52;17.30;;;6.10;;
19985;SDS011;10154;52.474;10.768;2023-01-10T04:38:17;13.07;;;5.97;;
19985;SDS011;10154;52.474;10.768;2023-01-10T04:40:43;13.90;;;6.30;;
19985;SDS011;10154;52.474;10.768;2023-01-10T04:43:09;13.93;;;5.83;;
19985;SDS011;10154;52.474;10.768;2023-01-10T04:45:35;15.37;;;6.33;;
19985;SDS011;10154;52.474;10.768;2023-01-10T04:48:00;18.43;;;6.40;;
19985;SDS011;10154;52.474;10.768;2023-01-10T04:50:25;14.80;;;5.37;;
19985;SDS011;10154;52.474;10.768;2023-01-10T04:52:51;17.97;;;5.90;;
19985;SDS011;10154;52.474;10.768;2023-01-10T04:55:17;15.23;;;6.00;;
19985;SDS011;10154;52.474;10.768;2023-01-10T04:57:42;14.90;;;6.00;;
19985;SDS011;10154;52.474;10.768;2023-01-10T05:00:08;14.80;;;6.30;;
19985;SDS011;10154;52.474;10.768;2023-01-10T05:02:34;12.33;;;5.93;;
19985;SDS011;10154;52.474;10.768;2023-01-10T05:04:59;15.87;;;5.73;;
19985;SDS011;10154;52.474;10.768;2023-01-10T05:07:25;16.97;;;5.97;;
19985;SDS011;10154;52.474;10.768;2023-01-10T05:09:50;16.57;;;5.87;;
19985;SDS011;10154;52.474;10.768;2023-01-10T05:12:15;19.37;;;6.00;;
19985;SDS011;10154;52.474;10.768;2023-01-10T05:14:41;18.33;;;5.97;;
19985;SDS011;10154;52.474;10.768;2023-01-10T05:17:06;15.10;;;5.83;;
19985;SDS011;10154;52.474;10.768;2023-01-10T05:19:32;14.53;;;6.00;;
19985;SDS011;10154;52.474;10.768;2023-01-10T05:21:57;14.60;;;5.40;;
19985;SDS011;10154;52.474;10.768;2023-01-10T05:24:22;18.53;;;5.40;;
19985;SDS011;10154;52.474;10.768;2023-01-10T05:26:48;16.47;;;5.13;;
19985;SDS011;10154;52.474;10.768;2023-01-10T05:29:13;17.17;;;5.70;;
19985;SDS011;10154;52.474;10.768;2023-01-10T05:31:39;21.70;;;5.43;;
19985;SDS011;10154;52.474;10.768;2023-01-10T05:34:04;15.53;;;5.10;;
19985;SDS011;10154;52.474;10.768;2023-01-10T05:36:30;17.10;;;5.27;;
19985;SDS011;10154;52.474;10.768;2023-01-10T05:38:56;15.03;;;5.17;;
19985;SDS011;10154;52.474;10.768;2023-01-10T05:41:22;17.03;;;4.87;;
19985;SDS011;10154;52.474;10.768;2023-01-10T05:43:48;14.77;;;5.70;;
19985;SDS011;10154;52.474;10.768;2023-01-10T05:46:13;18.03;;;5.77;;
19985;SDS011;10154;52.474;10.768;2023-01-10T05:48:39;19.33;;;5.67;;
19985;SDS011;10154;52.474;10.768;2023-01-10T05:51:05;14.00;;;5.67;;
19985;SDS011;10154;52.474;10.768;2023-01-10T05:53:31;17.67;;;5.60;;
19985;SDS011;10154;52.474;10.768;2023-01-10T05:55:57;15.37;;;5.33;;
19985;SDS011;10154;52.474;10.768;2023-01-10T05:58:24;15.97;;;5.80;;
19985;SDS011;10154;52.474;10.768;2023-01-10T06:00:51;16.97;;;5.43;;
19985;SDS011;10154;52.474;10.768;2023-01-10T06:03:17;17.00;;;4.73;;
19985;SDS011;10154;52.474;10.768;2023-01-10T06:05:43;16.17;;;4.63;;
19985;SDS011;10154;52.474;10.768;2023-01-10T06:08:08;19.17;;;5.20;;
19985;SDS011;10154;52.474;10.768;2023-01-10T06:10:33;23.20;;;5.40;;
19985;SDS011;10154;52.474;10.768;2023-01-10T06:12:59;14.77;;;4.43;;
19985;SDS011;10154;52.474;10.768;2023-01-10T06:15:24;16.90;;;4.40;;
19985;SDS011;10154;52.474;10.768;2023-01-10T06:17:50;14.97;;;4.13;;
19985;SDS011;10154;52.474;10.768;2023-01-10T06:20:16;17.03;;;4.57;;
19985;SDS011;10154;52.474;10.768;2023-01-10T06:22:42;12.37;;;3.93;;
19985;SDS011;10154;52.474;10.768;2023-01-10T06:25:12;14.07;;;3.83;;
19985;SDS011;10154;52.474;10.768;2023-01-10T06:27:39;19.63;;;4.00;;
19985;SDS011;10154;52.474;10.768;2023-01-10T06:30:05;18.60;;;3.80;;
19985;SDS011;10154;52.474;10.768;2023-01-10T06:32:31;17.23;;;4.00;;
19985;SDS011;10154;52.474;10.768;2023-01-10T06:34:57;14.83;;;3.97;;
19985;SDS011;10154;52.474;10.768;2023-01-10T06:37:22;22.47;;;3.90;;
19985;SDS011;10154;52.474;10.768;2023-01-10T06:39:47;18.10;;;3.87;;
19985;SDS011;10154;52.474;10.768;2023-01-10T06:42:15;15.43;;;3.20;;
19985;SDS011;10154;52.474;10.768;2023-01-10T06:44:40;17.53;;;3.67;;
19985;SDS011;10154;52.474;10.768;2023-01-10T06:47:06;23.57;;;4.50;;
19985;SDS011;10154;52.474;10.768;2023-01-10T06:49:31;15.60;;;3.40;;
19985;SDS011;10154;52.474;10.768;2023-01-10T06:51:56;16.03;;;3.63;;
19985;SDS011;10154;52.474;10.768;2023-01-10T06:54:22;13.40;;;3.20;;
19985;SDS011;10154;52.474;10.768;2023-01-10T06:56:47;25.83;;;6.20;;
19985;SDS011;10154;52.474;10.768;2023-01-10T06:59:13;15.50;;;3.20;;
19985;SDS011;10154;52.474;10.768;2023-01-10T07:01:38;17.53;;;3.43;;
19985;SDS011;10154;52.474;10.768;2023-01-10T07:04:04;20.17;;;3.90;;
19985;SDS011;10154;52.474;10.768;2023-01-10T07:06:29;16.00;;;3.60;;
19985;SDS011;10154;52.474;10.768;2023-01-10T07:08:55;15.97;;;3.17;;
19985;SDS011;10154;52.474;10.768;2023-01-10T07:11:21;15.77;;;3.27;;
19985;SDS011;10154;52.474;10.768;2023-01-10T07:13:46;16.00;;;3.10;;
19985;SDS011;10154;52.474;10.768;2023-01-10T07:16:12;16.20;;;3.77;;
19985;SDS011;10154;52.474;10.768;2023-01-10T07:18:39;16.33;;;2.93;;
19985;SDS011;10154;52.474;10.768;2023-01-10T07:21:06;11.90;;;3.10;;
19985;SDS011;10154;52.474;10.768;2023-01-10T07:23:32;15.20;;;3.63;;
19985;SDS011;10154;52.474;10.768;2023-01-10T07:26:00;21.87;;;3.27;;
19985;SDS011;10154;52.474;10.768;2023-01-10T07:28:27;15.70;;;3.00;;
19985;SDS011;10154;52.474;10.768;2023-01-10T07:30:52;15.53;;;2.87;;
19985;SDS011;10154;52.474;10.768;2023-01-10T07:33:17;13.30;;;3.20;;
19985;SDS011;10154;52.474;10.768;2023-01-10T07:35:43;16.33;;;3.40;;
19985;SDS011;10154;52.474;10.768;2023-01-10T07:38:08;17.70;;;3.00;;
19985;SDS011;10154;52.474;10.768;2023-01-10T07:40:33;22.13;;;3.97;;
19985;SDS011;10154;52.474;10.768;2023-01-10T07:42:59;19.53;;;3.50;;
19985;SDS011;10154;52.474;10.768;2023-01-10T07:45:27;10.03;;;2.07;;
19985;SDS011;10154;52.474;10.768;2023-01-10T07:47:59;17.50;;;3.53;;
19985;SDS011;10154;52.474;10.768;2023-01-10T07:50:26;15.63;;;3.50;;
19985;SDS011;10154;52.474;10.768;2023-01-10T07:52:53;15.23;;;3.20;;
19985;SDS011;10154;52.474;10.768;2023-01-10T07:55:19;16.57;;;3.70;;
19985;SDS011;10154;52.474;10.768;2023-01-10T07:57:44;14.27;;;3.40;;
19985;SDS011;10154;52.474;10.768;2023-01-10T08:00:10;18.57;;;4.10;;
19985;SDS011;10154;52.474;10.768;2023-01-10T08:02:36;16.50;;;3.77;;
19985;SDS011;10154;52.474;10.768;2023-01-10T08:05:01;17.73;;;3.50;;
19985;SDS011;10154;52.474;10.768;2023-01-10T08:07:28;17.87;;;3.67;;
19985;SDS011;10154;52.474;10.768;2023-01-10T08:09:53;14.47;;;3.30;;
19985;SDS011;10154;52.474;10.768;2023-01-10T08:12:19;18.17;;;3.43;;
19985;SDS011;10154;52.474;10.768;2023-01-10T08:14:45;17.07;;;3.80;;
19985;SDS011;10154;52.474;10.768;2023-01-10T08:17:10;19.63;;;4.13;;
19985;SDS011;10154;52.474;10.768;2023-01-10T08:19:36;15.80;;;3.53;;
19985;SDS011;10154;52.474;10.768;2023-01-10T08:22:01;16.70;;;4.20;;
19985;SDS011;10154;52.474;10.768;2023-01-10T08:24:27;14.13;;;4.10;;
19985;SDS011;10154;52.474;10.768;2023-01-10T08:26:52;20.13;;;4.53;;
19985;SDS011;10154;52.474;10.768;2023-01-10T08:29:18;16.93;;;4.10;;
19985;SDS011;10154;52.474;10.768;2023-01-10T08:31:43;20.60;;;4.27;;
19985;SDS011;10154;52.474;10.768;2023-01-10T08:34:08;19.83;;;4.83;;
19985;SDS011;10154;52.474;10.768;2023-01-10T08:36:34;19.03;;;4.30;;
19985;SDS011;10154;52.474;10.768;2023-01-10T08:38:59;22.03;;;4.40;;
19985;SDS011;10154;52.474;10.768;2023-01-10T08:41:24;18.47;;;4.23;;
19985;SDS011;10154;52.474;10.768;2023-01-10T08:43:50;21.70;;;4.40;;
19985;SDS011;10154;52.474;10.768;2023-01-10T08:46:16;23.33;;;4.50;;
19985;SDS011;10154;52.474;10.768;2023-01-10T08:48:42;19.80;;;4.50;;
19985;SDS011;10154;52.474;10.768;2023-01-10T08:51:08;23.63;;;4.63;;
19985;SDS011;10154;52.474;10.768;2023-01-10T08:53:34;18.87;;;5.00;;
19985;SDS011;10154;52.474;10.768;2023-01-10T08:56:00;21.63;;;4.60;;
19985;SDS011;10154;52.474;10.768;2023-01-10T08:58:25;17.33;;;4.93;;
19985;SDS011;10154;52.474;10.768;2023-01-10T09:00:51;15.27;;;4.10;;
19985;SDS011;10154;52.474;10.768;2023-01-10T09:03:16;18.47;;;4.27;;
19985;SDS011;10154;52.474;10.768;2023-01-10T09:05:43;18.23;;;5.10;;
19985;SDS011;10154;52.474;10.768;2023-01-10T09:08:08;16.50;;;5.37;;
19985;SDS011;10154;52.474;10.768;2023-01-10T09:10:34;17.00;;;4.90;;
19985;SDS011;10154;52.474;10.768;2023-01-10T09:12:59;23.03;;;5.70;;
19985;SDS011;10154;52.474;10.768;2023-01-10T09:15:27;26.73;;;6.20;;
19985;SDS011;10154;52.474;10.768;2023-01-10T09:17:57;25.07;;;5.57;;
19985;SDS011;10154;52.474;10.768;2023-01-10T09:20:25;23.10;;;5.57;;
19985;SDS011;10154;52.474;10.768;2023-01-10T09:22:51;27.00;;;6.63;;
19985;SDS011;10154;52.474;10.768;2023-01-10T09:25:16;22.17;;;6.40;;
19985;SDS011;10154;52.474;10.768;2023-01-10T09:27:41;22.57;;;6.73;;
19985;SDS011;10154;52.474;10.768;2023-01-10T09:30:07;21.17;;;6.33;;
19985;SDS011;10154;52.474;10.768;2023-01-10T09:32:33;27.67;;;6.60;;
19985;SDS011;10154;52.474;10.768;2023-01-10T09:34:58;30.00;;;7.73;;
19985;SDS011;10154;52.474;10.768;2023-01-10T09:37:23;22.50;;;8.17;;
19985;SDS011;10154;52.474;10.768;2023-01-10T09:39:49;28.83;;;7.90;;
19985;SDS011;10154;52.474;10.768;2023-01-10T09:44:57;21.97;;;7.53;;
19985;SDS011;10154;52.474;10.768;2023-01-10T09:47:31;24.33;;;8.93;;
19985;SDS011;10154;52.474;10.768;2023-01-10T09:53:25;23.23;;;8.23;;
19985;SDS011;10154;52.474;10.768;2023-01-10T09:55:29;27.70;;;8.23;;
19985;SDS011;10154;52.474;10.768;2023-01-10T09:57:57;27.90;;;8.60;;
19985;SDS011;10154;52.474;10.768;2023-01-10T10:00:36;19.57;;;8.03;;
19985;SDS011;10154;52.474;10.768;2023-01-10T10:03:04;21.30;;;7.60;;
19985;SDS011;10154;52.474;10.768;2023-01-10T10:05:37;23.77;;;7.93;;
19985;SDS011;10154;52.474;10.768;2023-01-10T10:08:02;23.03;;;7.27;;
19985;SDS011;10154;52.474;10.768;2023-01-10T10:13:26;24.93;;;7.47;;
19985;SDS011;10154;52.474;10.768;2023-01-10T10:16:06;19.90;;;6.17;;
19985;SDS011;10154;52.474;10.768;2023-01-10T10:21:47;24.87;;;6.53;;
19985;SDS011;10154;52.474;10.768;2023-01-10T10:24:35;23.53;;;7.00;;
19985;SDS011;10154;52.474;10.768;2023-01-10T10:33:02;23.97;;;6.70;;
19985;SDS011;10154;52.474;10.768;2023-01-10T10:37:57;20.63;;;6.83;;
19985;SDS011;10154;52.474;10.768;2023-01-10T10:40:31;21.47;;;6.13;;
19985;SDS011;10154;52.474;10.768;2023-01-10T10:42:58;21.77;;;6.50;;
19985;SDS011;10154;52.474;10.768;2023-01-10T10:45:35;23.73;;;7.27;;
19985;SDS011;10154;52.474;10.768;2023-01-10T10:50:38;24.47;;;6.40;;
19985;SDS011;10154;52.474;10.768;2023-01-10T10:53:12;26.40;;;6.20;;
19985;SDS011;10154;52.474;10.768;2023-01-10T10:55:38;25.07;;;6.20;;
19985;SDS011;10154;52.474;10.768;2023-01-10T10:58:03;21.47;;;6.07;;
19985;SDS011;10154;52.474;10.768;2023-01-10T11:00:30;24.90;;;5.97;;
19985;SDS011;10154;52.474;10.768;2023-01-10T11:03:57;23.73;;;6.17;;
19985;SDS011;10154;52.474;10.768;2023-01-10T11:06:04;17.93;;;6.27;;
19985;SDS011;10154;52.474;10.768;2023-01-10T11:08:31;24.13;;;5.57;;
19985;SDS011;10154;52.474;10.768;2023-01-10T11:11:01;18.53;;;6.87;;
19985;SDS011;10154;52.474;10.768;2023-01-10T11:15:59;21.73;;;5.73;;
19985;SDS011;10154;52.474;10.768;2023-01-10T11:18:26;22.47;;;6.33;;
19985;SDS011;10154;52.474;10.768;2023-01-10T11:20:53;21.20;;;6.30;;
19985;SDS011;10154;52.474;10.768;2023-01-10T11:23:30;22.50;;;6.00;;
19985;SDS011;10154;52.474;10.768;2023-01-10T11:25:58;21.73;;;5.23;;
19985;SDS011;10154;52.474;10.768;2023-01-10T11:28:25;23.47;;;5.03;;
19985;SDS011;10154;52.474;10.768;2023-01-10T11:30:56;21.07;;;5.10;;
19985;SDS011;10154;52.474;10.768;2023-01-10T11:33:27;16.30;;;5.40;;
19985;SDS011;10154;52.474;10.768;2023-01-10T11:36:07;21.57;;;5.47;;
19985;SDS011;10154;52.474;10.768;2023-01-10T11:38:34;29.27;;;6.63;;
19985;SDS011;10154;52.474;10.768;2023-01-10T11:41:01;20.60;;;4.40;;
19985;SDS011;10154;52.474;10.768;2023-01-10T11:43:35;22.60;;;5.90;;
19985;SDS011;10154;52.474;10.768;2023-01-10T11:46:06;22.83;;;6.67;;
19985;SDS011;10154;52.474;10.768;2023-01-10T11:51:16;17.83;;;5.67;;
19985;SDS011;10154;52.474;10.768;2023-01-10T11:53:42;20.40;;;5.63;;
19985;SDS011;10154;52.474;10.768;2023-01-10T11:56:11;20.93;;;6.00;;
19985;SDS011;10154;52.474;10.768;2023-01-10T11:58:38;23.47;;;6.27;;
19985;SDS011;10154;52.474;10.768;2023-01-10T12:01:23;16.47;;;5.23;;
19985;SDS011;10154;52.474;10.768;2023-01-10T12:03:50;23.97;;;5.83;;
19985;SDS011;10154;52.474;10.768;2023-01-10T12:06:16;26.93;;;6.23;;
19985;SDS011;10154;52.474;10.768;2023-01-10T12:08:42;20.37;;;6.00;;
19985;SDS011;10154;52.474;10.768;2023-01-10T12:13:47;26.90;;;5.67;;
19985;SDS011;10154;52.474;10.768;2023-01-10T12:16:21;22.37;;;5.47;;
19985;SDS011;10154;52.474;10.768;2023-01-10T12:18:49;19.17;;;5.57;;
19985;SDS011;10154;52.474;10.768;2023-01-10T12:21:17;20.67;;;5.87;;
19985;SDS011;10154;52.474;10.768;2023-01-10T12:23:44;16.60;;;6.13;;
19985;SDS011;10154;52.474;10.768;2023-01-10T12:26:11;28.73;;;6.40;;
19985;SDS011;10154;52.474;10.768;2023-01-10T12:28:38;19.50;;;5.27;;
19985;SDS011;10154;52.474;10.768;2023-01-10T12:31:09;24.43;;;6.03;;
19985;SDS011;10154;52.474;10.768;2023-01-10T12:33:37;19.80;;;5.90;;
19985;SDS011;10154;52.474;10.768;2023-01-10T12:36:29;11.20;;;4.10;;
19985;SDS011;10154;52.474;10.768;2023-01-10T12:39:00;19.87;;;5.70;;
19985;SDS011;10154;52.474;10.768;2023-01-10T12:45:09;25.63;;;5.57;;
19985;SDS011;10154;52.474;10.768;2023-01-10T12:55:29;13.73;;;4.43;;
19985;SDS011;10154;52.474;10.768;2023-01-10T12:58:11;19.70;;;5.57;;
19985;SDS011;10154;52.474;10.768;2023-01-10T13:00:45;20.37;;;5.33;;
19985;SDS011;10154;52.474;10.768;2023-01-10T13:03:15;18.97;;;4.97;;
19985;SDS011;10154;52.474;10.768;2023-01-10T13:05:44;18.83;;;5.30;;
19985;SDS011;10154;52.474;10.768;2023-01-10T13:08:12;19.30;;;4.93;;
19985;SDS011;10154;52.474;10.768;2023-01-10T13:10:43;9.70;;;3.40;;
19985;SDS011;10154;52.474;10.768;2023-01-10T13:13:28;24.17;;;5.93;;
19985;SDS011;10154;52.474;10.768;2023-01-10T13:18:30;21.37;;;4.67;;
19985;SDS011;10154;52.474;10.768;2023-01-10T13:21:11;18.47;;;4.60;;
19985;SDS011;10154;52.474;10.768;2023-01-10T13:23:46;19.00;;;5.37;;
19985;SDS011;10154;52.474;10.768;2023-01-10T13:26:12;23.93;;;4.80;;
19985;SDS011;10154;52.474;10.768;2023-01-10T13:28:51;22.43;;;5.20;;
19985;SDS011;10154;52.474;10.768;2023-01-10T13:31:27;18.17;;;5.17;;
19985;SDS011;10154;52.474;10.768;2023-01-10T13:33:54;19.23;;;4.83;;
19985;SDS011;10154;52.474;10.768;2023-01-10T13:36:24;20.17;;;5.17;;
19985;SDS011;10154;52.474;10.768;2023-01-10T13:38:51;18.33;;;4.30;;
19985;SDS011;10154;52.474;10.768;2023-01-10T13:41:19;25.10;;;5.10;;
19985;SDS011;10154;52.474;10.768;2023-01-10T13:44:05;28.83;;;5.43;;
19985;SDS011;10154;52.474;10.768;2023-01-10T13:46:33;23.20;;;4.63;;
19985;SDS011;10154;52.474;10.768;2023-01-10T13:51:35;24.07;;;5.17;;
19985;SDS011;10154;52.474;10.768;2023-01-10T13:54:01;23.47;;;4.87;;
19985;SDS011;10154;52.474;10.768;2023-01-10T13:56:41;26.80;;;5.47;;
19985;SDS011;10154;52.474;10.768;2023-01-10T13:59:58;19.17;;;4.47;;
19985;SDS011;10154;52.474;10.768;2023-01-10T14:05:03;17.33;;;4.20;;
19985;SDS011;10154;52.474;10.768;2023-01-10T14:07:39;24.03;;;4.27;;
19985;SDS011;10154;52.474;10.768;2023-01-10T14:10:10;22.57;;;5.07;;
19985;SDS011;10154;52.474;10.768;2023-01-10T14:15:22;23.43;;;4.20;;
19985;SDS011;10154;52.474;10.768;2023-01-10T14:17:57;25.90;;;4.73;;
19985;SDS011;10154;52.474;10.768;2023-01-10T14:20:30;24.73;;;4.60;;
19985;SDS011;10154;52.474;10.768;2023-01-10T14:25:35;23.40;;;4.80;;
19985;SDS011;10154;52.474;10.768;2023-01-10T14:28:01;19.43;;;4.47;;
19985;SDS011;10154;52.474;10.768;2023-01-10T14:30:28;18.70;;;3.90;;
19985;SDS011;10154;52.474;10.768;2023-01-10T14:32:58;18.50;;;3.93;;
19985;SDS011;10154;52.474;10.768;2023-01-10T14:35:32;22.67;;;4.43;;
19985;SDS011;10154;52.474;10.768;2023-01-10T14:38:00;21.43;;;4.97;;
19985;SDS011;10154;52.474;10.768;2023-01-10T14:43:17;24.60;;;4.40;;
19985;SDS011;10154;52.474;10.768;2023-01-10T14:45:54;20.03;;;4.60;;
19985;SDS011;10154;52.474;10.768;2023-01-10T14:53:39;22.10;;;4.97;;
19985;SDS011;10154;52.474;10.768;2023-01-10T14:56:23;24.83;;;4.90;;
19985;SDS011;10154;52.474;10.768;2023-01-10T14:58:49;19.33;;;5.27;;
19985;SDS011;10154;52.474;10.768;2023-01-10T15:01:17;19.77;;;5.00;;
19985;SDS011;10154;52.474;10.768;2023-01-10T15:03:49;16.30;;;4.30;;
19985;SDS011;10154;52.474;10.768;2023-01-10T15:06:15;19.57;;;4.40;;
19985;SDS011;10154;52.474;10.768;2023-01-10T15:08:40;18.47;;;4.90;;
19985;SDS011;10154;52.474;10.768;2023-01-10T15:11:06;20.57;;;4.40;;
19985;SDS011;10154;52.474;10.768;2023-01-10T15:13:50;20.17;;;4.70;;
19985;SDS011;10154;52.474;10.768;2023-01-10T15:16:21;23.63;;;4.57;;
19985;SDS011;10154;52.474;10.768;2023-01-10T15:18:47;21.77;;;4.57;;
19985;SDS011;10154;52.474;10.768;2023-01-10T15:21:14;26.03;;;4.70;;
19985;SDS011;10154;52.474;10.768;2023-01-10T15:23:41;19.17;;;4.40;;
19985;SDS011;10154;52.474;10.768;2023-01-10T15:26:09;25.17;;;4.53;;
19985;SDS011;10154;52.474;10.768;2023-01-10T15:28:39;15.40;;;3.53;;
19985;SDS011;10154;52.474;10.768;2023-01-10T15:31:04;21.30;;;5.10;;
19985;SDS011;10154;52.474;10.768;2023-01-10T15:33:32;16.37;;;3.60;;
19985;SDS011;10154;52.474;10.768;2023-01-10T15:36:06;14.73;;;3.70;;
19985;SDS011;10154;52.474;10.768;2023-01-10T15:38:36;21.50;;;4.10;;
19985;SDS011;10154;52.474;10.768;2023-01-10T15:41:03;14.10;;;3.47;;
19985;SDS011;10154;52.474;10.768;2023-01-10T15:43:30;13.37;;;3.70;;
19985;SDS011;10154;52.474;10.768;2023-01-10T15:45:57;15.10;;;4.20;;
19985;SDS011;10154;52.474;10.768;2023-01-10T15:53:53;15.00;;;3.67;;
19985;SDS011;10154;52.474;10.768;2023-01-10T15:56:27;10.97;;;3.47;;
19985;SDS011;10154;52.474;10.768;2023-01-10T15:58:54;14.20;;;3.47;;
19985;SDS011;10154;52.474;10.768;2023-01-10T16:01:21;13.47;;;3.60;;
19985;SDS011;10154;52.474;10.768;2023-01-10T16:03:47;12.90;;;3.80;;
19985;SDS011;10154;52.474;10.768;2023-01-10T16:08:59;10.13;;;3.27;;
19985;SDS011;10154;52.474;10.768;2023-01-10T16:11:38;11.80;;;3.40;;
19985;SDS011;10154;52.474;10.768;2023-01-10T16:14:23;12.37;;;3.63;;
19985;SDS011;10154;52.474;10.768;2023-01-10T16:16:49;15.10;;;3.50;;